VCV3496 SVMI-MUHA
Flight info
| Callsign | VCV3496 |
|---|---|
| Flight time | 2h 53m |
| Altitude | 38000 |
| Route | MARES1 MARES DCT AVELO UA315 PJG UL220 ABA UL332 UCL HERFO2A |
| Aircraft | A346/H-SDE2E3FGHIJ3J4J5M1RWXY/LB1D1 |
Departure
| Time | 2026-05-06 22:16 |
|---|---|
| Airport | Maiquetía Simón Bolívar International Airport (SVMI) |
Arrival
| Time | 2026-05-07 01:09 |
|---|---|
| Airport | José Martí International Airport (MUHA) |
| Time | Latitude | Longitude | Altitude | Speed | Heading |
|---|---|---|---|---|---|
| 2026-05-06 21:39 | 10.59846 | -67.00458 | 236 ft | 0 kts | 178° |
| 2026-05-06 22:09 | 10.59869 | -67.00459 | 239 ft | 4 kts | 178° |
| 2026-05-06 22:09 | 10.59893 | -67.00460 | 242 ft | 4 kts | 181° |
| 2026-05-06 22:09 | 10.59913 | -67.00456 | 241 ft | 4 kts | 213° |
| 2026-05-06 22:10 | 10.59922 | -67.00445 | 241 ft | 4 kts | 257° |
| 2026-05-06 22:10 | 10.59923 | -67.00420 | 240 ft | 4 kts | 270° |
| 2026-05-06 22:10 | 10.59923 | -67.00404 | 240 ft | 0 kts | 268° |
| 2026-05-06 22:12 | 10.59923 | -67.00406 | 262 ft | 1 kts | 268° |
| 2026-05-06 22:12 | 10.59923 | -67.00419 | 240 ft | 3 kts | 268° |
| 2026-05-06 22:13 | 10.59921 | -67.00460 | 240 ft | 13 kts | 268° |
| 2026-05-06 22:13 | 10.59916 | -67.00622 | 239 ft | 33 kts | 268° |
| 2026-05-06 22:13 | 10.59906 | -67.00901 | 244 ft | 35 kts | 268° |
| 2026-05-06 22:13 | 10.59900 | -67.01141 | 248 ft | 19 kts | 268° |
| 2026-05-06 22:14 | 10.59957 | -67.01226 | 249 ft | 22 kts | 351° |
| 2026-05-06 22:14 | 10.60156 | -67.01248 | 247 ft | 18 kts | 1° |
| 2026-05-06 22:14 | 10.60237 | -67.01173 | 243 ft | 22 kts | 34° |
| 2026-05-06 22:14 | 10.60371 | -67.01122 | 246 ft | 18 kts | 54° |
| 2026-05-06 22:15 | 10.60384 | -67.01066 | 245 ft | 0 kts | 86° |
| 2026-05-06 22:15 | 10.60389 | -67.00995 | 243 ft | 40 kts | 87° |
| 2026-05-06 22:15 | 10.60408 | -67.00391 | 236 ft | 127 kts | 88° |
| 2026-05-06 22:15 | 10.60446 | -66.99234 | 253 ft | 193 kts | 89° |
| 2026-05-06 22:16 | 10.60499 | -66.97831 | 1005 ft | 200 kts | 86° |
| 2026-05-06 22:16 | 10.60915 | -66.96531 | 2137 ft | 187 kts | 53° |
| 2026-05-06 22:16 | 10.61915 | -66.95807 | 3079 ft | 174 kts | 20° |
| 2026-05-06 22:16 | 10.63118 | -66.95642 | 3630 ft | 180 kts | 355° |
| 2026-05-06 22:17 | 10.64344 | -66.96037 | 3913 ft | 201 kts | 329° |
| 2026-05-06 22:17 | 10.65391 | -66.97127 | 3978 ft | 232 kts | 298° |
| 2026-05-06 22:17 | 10.65827 | -66.98736 | 4001 ft | 240 kts | 280° |
| 2026-05-06 22:17 | 10.66149 | -67.00413 | 3987 ft | 246 kts | 281° |
| 2026-05-06 22:18 | 10.66511 | -67.02231 | 3953 ft | 273 kts | 281° |
| 2026-05-06 22:18 | 10.66896 | -67.04152 | 3959 ft | 279 kts | 281° |
| 2026-05-06 22:18 | 10.67278 | -67.06085 | 3973 ft | 279 kts | 282° |
| 2026-05-06 22:18 | 10.67999 | -67.07906 | 3954 ft | 279 kts | 304° |
| 2026-05-06 22:19 | 10.69196 | -67.09461 | 3991 ft | 279 kts | 311° |
| 2026-05-06 22:19 | 10.70485 | -67.10948 | 3998 ft | 281 kts | 312° |
| 2026-05-06 22:19 | 10.71765 | -67.12439 | 4004 ft | 280 kts | 311° |
| 2026-05-06 22:19 | 10.73029 | -67.13961 | 4006 ft | 282 kts | 310° |
| 2026-05-06 22:20 | 10.74281 | -67.15503 | 4011 ft | 282 kts | 310° |
| 2026-05-06 22:20 | 10.75519 | -67.17046 | 4012 ft | 282 kts | 310° |
| 2026-05-06 22:20 | 10.76755 | -67.18595 | 4018 ft | 281 kts | 309° |
| 2026-05-06 22:20 | 10.77984 | -67.20138 | 4017 ft | 281 kts | 309° |
| 2026-05-06 22:21 | 10.79217 | -67.21695 | 4013 ft | 284 kts | 310° |
| 2026-05-06 22:21 | 10.80475 | -67.23288 | 4449 ft | 293 kts | 309° |
| 2026-05-06 22:21 | 10.81743 | -67.24887 | 5463 ft | 287 kts | 309° |
| 2026-05-06 22:21 | 10.82975 | -67.26444 | 6416 ft | 287 kts | 308° |
| 2026-05-06 22:22 | 10.84261 | -67.28070 | 7091 ft | 296 kts | 308° |
| 2026-05-06 22:22 | 10.85553 | -67.29709 | 7747 ft | 304 kts | 308° |
| 2026-05-06 22:22 | 10.86879 | -67.31393 | 8562 ft | 305 kts | 308° |
| 2026-05-06 22:22 | 10.88215 | -67.33086 | 9373 ft | 308 kts | 308° |
| 2026-05-06 22:23 | 10.89576 | -67.34809 | 10054 ft | 315 kts | 308° |
| 2026-05-06 22:23 | 10.90966 | -67.36577 | 10594 ft | 326 kts | 309° |
| 2026-05-06 22:23 | 10.92420 | -67.38422 | 10976 ft | 342 kts | 309° |
| 2026-05-06 22:23 | 10.93950 | -67.40357 | 11320 ft | 359 kts | 310° |
| 2026-05-06 22:24 | 10.95554 | -67.42386 | 11626 ft | 377 kts | 310° |
| 2026-05-06 22:24 | 10.97237 | -67.44512 | 11928 ft | 393 kts | 310° |
| 2026-05-06 22:24 | 10.98986 | -67.46724 | 12299 ft | 406 kts | 310° |
| 2026-05-06 22:24 | 11.00773 | -67.48989 | 12878 ft | 412 kts | 310° |
| 2026-05-06 22:25 | 11.02575 | -67.51274 | 13582 ft | 415 kts | 311° |
| 2026-05-06 22:25 | 11.04392 | -67.53580 | 14183 ft | 419 kts | 311° |
| 2026-05-06 22:25 | 11.06223 | -67.55900 | 14796 ft | 422 kts | 311° |
| 2026-05-06 22:25 | 11.08065 | -67.58236 | 15438 ft | 423 kts | 311° |
| 2026-05-06 22:26 | 11.09915 | -67.60580 | 16105 ft | 425 kts | 312° |
| 2026-05-06 22:26 | 11.11767 | -67.62927 | 16794 ft | 425 kts | 312° |
| 2026-05-06 22:26 | 11.13599 | -67.65250 | 17478 ft | 427 kts | 312° |
| 2026-05-06 22:26 | 11.15459 | -67.67609 | 18155 ft | 428 kts | 312° |
| 2026-05-06 22:27 | 11.17332 | -67.69981 | 18744 ft | 429 kts | 312° |
| 2026-05-06 22:27 | 11.19210 | -67.72358 | 19310 ft | 431 kts | 312° |
| 2026-05-06 22:27 | 11.21098 | -67.74749 | 19840 ft | 434 kts | 311° |
| 2026-05-06 22:27 | 11.22996 | -67.77156 | 20348 ft | 437 kts | 311° |
| 2026-05-06 22:28 | 11.24904 | -67.79579 | 20841 ft | 440 kts | 311° |
| 2026-05-06 22:28 | 11.26827 | -67.82023 | 21357 ft | 443 kts | 311° |
| 2026-05-06 22:28 | 11.28759 | -67.84483 | 21867 ft | 445 kts | 311° |
| 2026-05-06 22:28 | 11.30704 | -67.86947 | 22352 ft | 448 kts | 310° |
| 2026-05-06 22:29 | 11.32659 | -67.89437 | 22830 ft | 450 kts | 311° |
| 2026-05-06 22:29 | 11.34624 | -67.91930 | 23325 ft | 452 kts | 310° |
| 2026-05-06 22:29 | 11.36598 | -67.94435 | 23738 ft | 454 kts | 310° |
| 2026-05-06 22:29 | 11.38578 | -67.96957 | 24122 ft | 456 kts | 309° |
| 2026-05-06 22:30 | 11.40575 | -67.99495 | 24476 ft | 460 kts | 309° |
| 2026-05-06 22:30 | 11.42545 | -68.02014 | 24851 ft | 461 kts | 309° |
| 2026-05-06 22:30 | 11.44546 | -68.04571 | 25296 ft | 462 kts | 309° |
| 2026-05-06 22:30 | 11.46553 | -68.07141 | 25662 ft | 464 kts | 309° |
| 2026-05-06 22:31 | 11.48575 | -68.09731 | 25976 ft | 468 kts | 309° |
| 2026-05-06 22:31 | 11.50608 | -68.12339 | 26317 ft | 471 kts | 309° |
| 2026-05-06 22:31 | 11.52646 | -68.14951 | 26815 ft | 469 kts | 308° |
| 2026-05-06 22:31 | 11.54675 | -68.17551 | 27299 ft | 469 kts | 308° |
| 2026-05-06 22:32 | 11.56714 | -68.20167 | 27589 ft | 473 kts | 308° |
| 2026-05-06 22:32 | 11.58762 | -68.22795 | 27969 ft | 473 kts | 308° |
| 2026-05-06 22:32 | 11.60809 | -68.25420 | 28563 ft | 470 kts | 308° |
| 2026-05-06 22:32 | 11.62839 | -68.28022 | 29168 ft | 467 kts | 308° |
| 2026-05-06 22:33 | 11.64833 | -68.30579 | 29627 ft | 467 kts | 308° |
| 2026-05-06 22:33 | 11.66859 | -68.33179 | 30019 ft | 468 kts | 308° |
| 2026-05-06 22:33 | 11.68883 | -68.35775 | 30465 ft | 466 kts | 308° |
| 2026-05-06 22:33 | 11.70895 | -68.38359 | 30902 ft | 465 kts | 308° |
| 2026-05-06 22:34 | 11.72908 | -68.40942 | 31295 ft | 464 kts | 307° |
| 2026-05-06 22:34 | 11.74916 | -68.43521 | 31740 ft | 463 kts | 307° |
| 2026-05-06 22:34 | 11.76918 | -68.46093 | 32150 ft | 462 kts | 307° |
| 2026-05-06 22:34 | 11.78245 | -68.47798 | 32445 ft | 461 kts | 307° |
| 2026-05-06 22:35 | 11.80238 | -68.50360 | 32894 ft | 460 kts | 307° |
| 2026-05-06 22:35 | 11.82227 | -68.52917 | 33311 ft | 459 kts | 307° |
| 2026-05-06 22:35 | 11.84212 | -68.55469 | 33742 ft | 458 kts | 307° |
| 2026-05-06 22:35 | 11.86191 | -68.58014 | 34152 ft | 456 kts | 307° |
| 2026-05-06 22:36 | 11.88165 | -68.60555 | 34521 ft | 456 kts | 307° |
| 2026-05-06 22:36 | 11.90135 | -68.63091 | 34850 ft | 456 kts | 306° |
| 2026-05-06 22:36 | 11.92106 | -68.65629 | 35173 ft | 456 kts | 306° |
| 2026-05-06 22:36 | 11.94079 | -68.68169 | 35514 ft | 456 kts | 306° |
| 2026-05-06 22:37 | 11.96051 | -68.70709 | 35823 ft | 456 kts | 306° |
| 2026-05-06 22:37 | 11.98024 | -68.73252 | 35924 ft | 456 kts | 306° |
| 2026-05-06 22:37 | 12.01938 | -68.78297 | 35937 ft | 456 kts | 306° |
| 2026-05-06 22:38 | 12.05877 | -68.83376 | 35940 ft | 456 kts | 306° |
| 2026-05-06 22:38 | 12.09821 | -68.88464 | 35942 ft | 456 kts | 306° |
| 2026-05-06 22:39 | 12.13752 | -68.93557 | 35943 ft | 456 kts | 305° |
| 2026-05-06 22:39 | 12.17318 | -68.98897 | 35944 ft | 454 kts | 299° |
| 2026-05-06 22:40 | 12.20327 | -69.04559 | 35944 ft | 452 kts | 294° |
| 2026-05-06 22:40 | 12.22753 | -69.10488 | 35944 ft | 451 kts | 288° |
| 2026-05-06 22:41 | 12.25809 | -69.19601 | 35944 ft | 451 kts | 287° |
| 2026-05-06 22:42 | 12.27831 | -69.25681 | 35946 ft | 451 kts | 287° |
| 2026-05-06 22:42 | 12.29853 | -69.31766 | 35938 ft | 451 kts | 287° |
| 2026-05-06 22:43 | 12.31876 | -69.37855 | 35942 ft | 451 kts | 287° |
| 2026-05-06 22:43 | 12.33878 | -69.43890 | 35933 ft | 450 kts | 287° |
| 2026-05-06 22:44 | 12.35892 | -69.49959 | 35932 ft | 449 kts | 287° |
| 2026-05-06 22:44 | 12.37898 | -69.56018 | 35928 ft | 449 kts | 287° |
| 2026-05-06 22:45 | 12.39907 | -69.62083 | 35927 ft | 449 kts | 287° |
| 2026-05-06 22:45 | 12.41917 | -69.68157 | 35931 ft | 450 kts | 287° |
| 2026-05-06 22:46 | 12.43926 | -69.74233 | 35925 ft | 449 kts | 287° |
| 2026-05-06 22:46 | 12.45932 | -69.80304 | 35923 ft | 450 kts | 287° |
| 2026-05-06 22:47 | 12.47998 | -69.86347 | 35920 ft | 449 kts | 290° |
| 2026-05-06 22:47 | 12.50555 | -69.92157 | 35915 ft | 452 kts | 296° |
| 2026-05-06 22:48 | 12.53736 | -69.97731 | 35916 ft | 454 kts | 302° |
| 2026-05-06 22:48 | 12.57482 | -70.02937 | 35916 ft | 454 kts | 307° |
| 2026-05-06 22:49 | 12.61501 | -70.07944 | 35918 ft | 455 kts | 308° |
| 2026-05-06 22:49 | 12.65532 | -70.12943 | 35920 ft | 455 kts | 308° |
| 2026-05-06 22:50 | 12.69564 | -70.17947 | 35927 ft | 455 kts | 308° |
| 2026-05-06 22:50 | 12.73563 | -70.22916 | 35935 ft | 453 kts | 308° |
| 2026-05-06 22:51 | 12.77565 | -70.27893 | 35934 ft | 451 kts | 308° |
| 2026-05-06 22:51 | 12.81558 | -70.32857 | 35932 ft | 451 kts | 308° |
| 2026-05-06 22:52 | 12.85553 | -70.37830 | 35928 ft | 451 kts | 308° |
| 2026-05-06 22:52 | 12.89549 | -70.42807 | 35938 ft | 452 kts | 308° |
| 2026-05-06 22:53 | 12.93549 | -70.47786 | 35937 ft | 451 kts | 308° |
| 2026-05-06 22:53 | 12.97542 | -70.52764 | 35937 ft | 451 kts | 308° |
| 2026-05-06 22:54 | 13.01498 | -70.57704 | 35935 ft | 449 kts | 308° |
| 2026-05-06 22:54 | 13.05464 | -70.62669 | 35942 ft | 450 kts | 308° |
| 2026-05-06 22:55 | 13.09431 | -70.67634 | 35939 ft | 450 kts | 308° |
| 2026-05-06 22:55 | 13.13405 | -70.72614 | 35943 ft | 450 kts | 308° |
| 2026-05-06 22:56 | 13.17371 | -70.77578 | 35939 ft | 449 kts | 308° |
| 2026-05-06 22:56 | 13.21331 | -70.82538 | 35942 ft | 448 kts | 308° |
| 2026-05-06 22:57 | 13.25292 | -70.87503 | 35941 ft | 449 kts | 308° |
| 2026-05-06 22:57 | 13.29244 | -70.92466 | 35937 ft | 449 kts | 308° |
| 2026-05-06 22:58 | 13.33181 | -70.97401 | 35941 ft | 449 kts | 308° |
| 2026-05-06 22:58 | 13.37133 | -71.02362 | 35939 ft | 449 kts | 308° |
| 2026-05-06 22:59 | 13.41075 | -71.07330 | 35939 ft | 447 kts | 308° |
| 2026-05-06 22:59 | 13.44996 | -71.12297 | 35940 ft | 448 kts | 308° |
| 2026-05-06 23:00 | 13.48928 | -71.17278 | 35952 ft | 448 kts | 309° |
| 2026-05-06 23:00 | 13.52870 | -71.22273 | 35951 ft | 450 kts | 309° |
| 2026-05-06 23:01 | 13.56814 | -71.27257 | 35951 ft | 448 kts | 309° |
| 2026-05-06 23:01 | 13.60726 | -71.32210 | 35941 ft | 448 kts | 309° |
| 2026-05-06 23:02 | 13.64655 | -71.37191 | 35946 ft | 447 kts | 309° |
| 2026-05-06 23:02 | 13.68590 | -71.42183 | 35948 ft | 448 kts | 309° |
| 2026-05-06 23:03 | 13.72523 | -71.47177 | 35942 ft | 450 kts | 309° |
| 2026-05-06 23:03 | 13.76470 | -71.52191 | 35949 ft | 449 kts | 309° |
| 2026-05-06 23:04 | 13.80395 | -71.57187 | 35924 ft | 449 kts | 310° |
| 2026-05-06 23:04 | 13.84315 | -71.62177 | 35943 ft | 448 kts | 309° |
| 2026-05-06 23:05 | 13.88258 | -71.67187 | 35951 ft | 452 kts | 310° |
| 2026-05-06 23:05 | 13.92207 | -71.72215 | 35949 ft | 451 kts | 309° |
| 2026-05-06 23:06 | 13.96140 | -71.77225 | 35955 ft | 453 kts | 310° |
| 2026-05-06 23:06 | 14.00085 | -71.82256 | 35954 ft | 452 kts | 310° |
| 2026-05-06 23:07 | 14.04017 | -71.87274 | 35953 ft | 447 kts | 310° |
| 2026-05-06 23:07 | 14.07938 | -71.92279 | 35944 ft | 451 kts | 310° |
| 2026-05-06 23:08 | 14.11882 | -71.97321 | 35944 ft | 453 kts | 310° |
| 2026-05-06 23:08 | 14.15845 | -72.02390 | 35947 ft | 453 kts | 310° |
| 2026-05-06 23:09 | 14.19794 | -72.07442 | 35951 ft | 453 kts | 310° |
| 2026-05-06 23:09 | 14.23739 | -72.12494 | 35952 ft | 451 kts | 310° |
| 2026-05-06 23:10 | 14.27662 | -72.17516 | 35953 ft | 454 kts | 310° |
| 2026-05-06 23:10 | 14.31627 | -72.22592 | 35955 ft | 454 kts | 310° |
| 2026-05-06 23:11 | 14.35586 | -72.27700 | 35949 ft | 457 kts | 310° |
| 2026-05-06 23:11 | 14.39528 | -72.32847 | 35954 ft | 457 kts | 310° |
| 2026-05-06 23:12 | 14.43472 | -72.37995 | 35955 ft | 456 kts | 311° |
| 2026-05-06 23:12 | 14.47412 | -72.43133 | 35955 ft | 456 kts | 310° |
| 2026-05-06 23:13 | 14.51358 | -72.48282 | 35955 ft | 456 kts | 310° |
| 2026-05-06 23:13 | 14.55277 | -72.53399 | 35956 ft | 457 kts | 310° |
| 2026-05-06 23:14 | 14.59259 | -72.58529 | 35958 ft | 456 kts | 311° |
| 2026-05-06 23:14 | 14.63248 | -72.63649 | 35959 ft | 458 kts | 311° |
| 2026-05-06 23:15 | 14.67237 | -72.68773 | 35957 ft | 457 kts | 311° |
| 2026-05-06 23:15 | 14.71224 | -72.73896 | 35960 ft | 457 kts | 311° |
| 2026-05-06 23:16 | 14.75212 | -72.79025 | 35959 ft | 457 kts | 311° |
| 2026-05-06 23:16 | 14.79197 | -72.84155 | 35960 ft | 457 kts | 311° |
| 2026-05-06 23:17 | 14.83180 | -72.89286 | 35962 ft | 457 kts | 311° |
| 2026-05-06 23:17 | 14.87161 | -72.94417 | 35963 ft | 457 kts | 311° |
| 2026-05-06 23:18 | 14.91145 | -72.99555 | 35960 ft | 458 kts | 311° |
| 2026-05-06 23:18 | 14.95110 | -73.04669 | 35963 ft | 458 kts | 311° |
| 2026-05-06 23:19 | 14.99099 | -73.09821 | 35963 ft | 458 kts | 311° |
| 2026-05-06 23:19 | 15.03085 | -73.14970 | 35967 ft | 457 kts | 311° |
| 2026-05-06 23:20 | 15.07065 | -73.20114 | 35966 ft | 457 kts | 311° |
| 2026-05-06 23:20 | 15.11012 | -73.25231 | 35966 ft | 457 kts | 311° |
| 2026-05-06 23:21 | 15.14982 | -73.30388 | 35965 ft | 457 kts | 311° |
| 2026-05-06 23:21 | 15.18957 | -73.35552 | 35968 ft | 458 kts | 311° |
| 2026-05-06 23:22 | 15.22938 | -73.40725 | 35967 ft | 458 kts | 311° |
| 2026-05-06 23:22 | 15.26912 | -73.45893 | 35968 ft | 458 kts | 311° |
| 2026-05-06 23:23 | 15.30889 | -73.51065 | 35973 ft | 458 kts | 311° |
| 2026-05-06 23:23 | 15.34864 | -73.56238 | 35972 ft | 459 kts | 311° |
| 2026-05-06 23:24 | 15.38839 | -73.61418 | 35973 ft | 458 kts | 311° |
| 2026-05-06 23:24 | 15.42808 | -73.66592 | 35966 ft | 458 kts | 311° |
| 2026-05-06 23:25 | 15.46758 | -73.71741 | 35973 ft | 459 kts | 311° |
| 2026-05-06 23:25 | 15.50734 | -73.76931 | 35974 ft | 459 kts | 311° |
| 2026-05-06 23:26 | 15.54711 | -73.82124 | 35976 ft | 459 kts | 311° |
| 2026-05-06 23:26 | 15.58685 | -73.87316 | 35976 ft | 459 kts | 311° |
| 2026-05-06 23:27 | 15.62661 | -73.92515 | 35976 ft | 459 kts | 311° |
| 2026-05-06 23:27 | 15.66637 | -73.97717 | 35978 ft | 459 kts | 311° |
| 2026-05-06 23:28 | 15.70701 | -74.02832 | 35975 ft | 459 kts | 313° |
| 2026-05-06 23:28 | 15.74854 | -74.07877 | 35977 ft | 459 kts | 313° |
| 2026-05-06 23:29 | 15.79008 | -74.12921 | 35983 ft | 459 kts | 314° |
| 2026-05-06 23:29 | 15.83163 | -74.17961 | 35983 ft | 459 kts | 314° |
| 2026-05-06 23:30 | 15.87312 | -74.23002 | 35978 ft | 459 kts | 314° |
| 2026-05-06 23:30 | 15.91462 | -74.28050 | 35985 ft | 459 kts | 314° |
| 2026-05-06 23:31 | 15.95607 | -74.33097 | 35986 ft | 459 kts | 314° |
| 2026-05-06 23:31 | 15.99756 | -74.38152 | 35982 ft | 459 kts | 314° |
| 2026-05-06 23:32 | 16.03904 | -74.43209 | 35984 ft | 460 kts | 314° |
| 2026-05-06 23:32 | 16.08053 | -74.48273 | 35988 ft | 460 kts | 314° |
| 2026-05-06 23:33 | 16.12202 | -74.53339 | 35991 ft | 460 kts | 314° |
| 2026-05-06 23:33 | 16.16313 | -74.58367 | 35991 ft | 458 kts | 314° |
| 2026-05-06 23:34 | 16.20444 | -74.63416 | 35992 ft | 457 kts | 314° |
| 2026-05-06 23:34 | 16.24567 | -74.68459 | 35991 ft | 457 kts | 314° |
| 2026-05-06 23:35 | 16.28692 | -74.73510 | 35993 ft | 457 kts | 314° |
| 2026-05-06 23:35 | 16.32815 | -74.78561 | 35992 ft | 457 kts | 314° |
| 2026-05-06 23:36 | 16.36938 | -74.83617 | 35998 ft | 457 kts | 314° |
| 2026-05-06 23:36 | 16.41058 | -74.88673 | 35999 ft | 457 kts | 314° |
| 2026-05-06 23:37 | 16.44483 | -74.92878 | 35997 ft | 457 kts | 314° |
| 2026-05-06 23:37 | 16.48599 | -74.97937 | 35999 ft | 457 kts | 314° |
| 2026-05-06 23:38 | 16.52709 | -75.02993 | 36003 ft | 455 kts | 314° |
| 2026-05-06 23:38 | 16.56805 | -75.08031 | 36000 ft | 455 kts | 314° |
| 2026-05-06 23:39 | 16.60899 | -75.13071 | 36003 ft | 455 kts | 314° |
| 2026-05-06 23:39 | 16.64993 | -75.18117 | 36003 ft | 455 kts | 314° |
| 2026-05-06 23:40 | 16.69087 | -75.23166 | 36003 ft | 455 kts | 314° |
| 2026-05-06 23:40 | 16.73150 | -75.28180 | 36005 ft | 455 kts | 314° |
| 2026-05-06 23:41 | 16.77243 | -75.33235 | 36002 ft | 455 kts | 314° |
| 2026-05-06 23:41 | 16.81331 | -75.38287 | 36008 ft | 455 kts | 314° |
| 2026-05-06 23:42 | 16.85423 | -75.43347 | 36003 ft | 455 kts | 313° |
| 2026-05-06 23:42 | 16.89513 | -75.48408 | 36010 ft | 455 kts | 314° |
| 2026-05-06 23:43 | 16.93593 | -75.53463 | 36012 ft | 454 kts | 314° |
| 2026-05-06 23:43 | 16.97671 | -75.58518 | 36016 ft | 454 kts | 314° |
| 2026-05-06 23:44 | 17.01749 | -75.63576 | 36013 ft | 454 kts | 314° |
| 2026-05-06 23:44 | 17.05795 | -75.68599 | 36009 ft | 454 kts | 313° |
| 2026-05-06 23:45 | 17.09865 | -75.73655 | 36018 ft | 454 kts | 313° |
| 2026-05-06 23:45 | 17.13938 | -75.78718 | 36009 ft | 454 kts | 313° |
| 2026-05-06 23:46 | 17.18014 | -75.83785 | 36014 ft | 455 kts | 313° |
| 2026-05-06 23:46 | 17.22086 | -75.88858 | 36015 ft | 455 kts | 313° |
| 2026-05-06 23:47 | 17.26154 | -75.93929 | 36022 ft | 453 kts | 313° |
| 2026-05-06 23:47 | 17.30176 | -75.98945 | 36019 ft | 452 kts | 313° |
| 2026-05-06 23:48 | 17.34219 | -76.03989 | 36018 ft | 452 kts | 313° |
| 2026-05-06 23:48 | 17.38265 | -76.09041 | 36012 ft | 452 kts | 313° |
| 2026-05-06 23:49 | 17.42310 | -76.14096 | 36015 ft | 452 kts | 313° |
| 2026-05-06 23:49 | 17.46360 | -76.19159 | 36014 ft | 453 kts | 313° |
| 2026-05-06 23:50 | 17.50409 | -76.24228 | 36007 ft | 453 kts | 313° |
| 2026-05-06 23:50 | 17.56480 | -76.31834 | 36013 ft | 453 kts | 313° |
| 2026-05-06 23:51 | 17.60528 | -76.36911 | 36007 ft | 453 kts | 313° |
| 2026-05-06 23:51 | 17.64572 | -76.41986 | 36007 ft | 453 kts | 313° |
| 2026-05-06 23:52 | 17.68592 | -76.47034 | 36007 ft | 453 kts | 313° |
| 2026-05-06 23:52 | 17.72636 | -76.52115 | 36003 ft | 454 kts | 313° |
| 2026-05-06 23:53 | 17.76690 | -76.57214 | 36005 ft | 455 kts | 313° |
| 2026-05-06 23:53 | 17.80743 | -76.62316 | 36003 ft | 455 kts | 313° |
| 2026-05-06 23:54 | 17.84795 | -76.67420 | 35999 ft | 455 kts | 313° |
| 2026-05-06 23:54 | 17.88847 | -76.72528 | 35999 ft | 455 kts | 313° |
| 2026-05-06 23:55 | 17.92650 | -76.77857 | 35996 ft | 457 kts | 307° |
| 2026-05-06 23:55 | 17.95906 | -76.83567 | 35996 ft | 459 kts | 302° |
| 2026-05-06 23:56 | 17.98899 | -76.89509 | 36005 ft | 459 kts | 301° |
| 2026-05-06 23:56 | 18.01871 | -76.95447 | 36013 ft | 459 kts | 301° |
| 2026-05-06 23:57 | 18.04843 | -77.01384 | 36009 ft | 458 kts | 301° |
| 2026-05-06 23:57 | 18.07815 | -77.07323 | 36007 ft | 458 kts | 301° |
| 2026-05-06 23:58 | 18.10783 | -77.13258 | 36015 ft | 458 kts | 301° |
| 2026-05-06 23:58 | 18.13751 | -77.19199 | 36015 ft | 458 kts | 301° |
| 2026-05-06 23:59 | 18.16716 | -77.25137 | 36025 ft | 459 kts | 301° |
| 2026-05-06 23:59 | 18.19665 | -77.31050 | 36027 ft | 459 kts | 301° |
| 2026-05-07 00:00 | 18.22630 | -77.37004 | 36035 ft | 459 kts | 301° |
| 2026-05-07 00:00 | 18.25591 | -77.42962 | 36035 ft | 459 kts | 301° |
| 2026-05-07 00:01 | 18.28553 | -77.48923 | 36037 ft | 459 kts | 301° |
| 2026-05-07 00:01 | 18.31512 | -77.54884 | 36035 ft | 459 kts | 301° |
| 2026-05-07 00:02 | 18.34471 | -77.60847 | 36027 ft | 459 kts | 301° |
| 2026-05-07 00:02 | 18.37433 | -77.66823 | 36035 ft | 460 kts | 301° |
| 2026-05-07 00:03 | 18.40367 | -77.72750 | 36031 ft | 458 kts | 301° |
| 2026-05-07 00:03 | 18.43315 | -77.78708 | 36034 ft | 458 kts | 301° |
| 2026-05-07 00:04 | 18.46263 | -77.84674 | 35999 ft | 458 kts | 301° |
| 2026-05-07 00:04 | 18.49496 | -77.90453 | 35999 ft | 456 kts | 307° |
| 2026-05-07 00:05 | 18.53253 | -77.95820 | 35993 ft | 454 kts | 312° |
| 2026-05-07 00:05 | 18.57456 | -78.00771 | 36006 ft | 453 kts | 315° |
| 2026-05-07 00:06 | 18.61761 | -78.05633 | 36008 ft | 453 kts | 315° |
| 2026-05-07 00:06 | 18.66035 | -78.10460 | 36012 ft | 453 kts | 315° |
| 2026-05-07 00:07 | 18.70332 | -78.15319 | 36019 ft | 453 kts | 315° |
| 2026-05-07 00:07 | 18.74629 | -78.20183 | 36027 ft | 453 kts | 315° |
| 2026-05-07 00:08 | 18.78908 | -78.25029 | 36029 ft | 450 kts | 315° |
| 2026-05-07 00:08 | 18.83178 | -78.29872 | 36025 ft | 450 kts | 315° |
| 2026-05-07 00:09 | 18.87441 | -78.34709 | 36025 ft | 450 kts | 315° |
| 2026-05-07 00:09 | 18.91704 | -78.39550 | 36025 ft | 450 kts | 315° |
| 2026-05-07 00:10 | 18.95967 | -78.44396 | 36024 ft | 450 kts | 315° |
| 2026-05-07 00:10 | 19.00226 | -78.49240 | 36025 ft | 450 kts | 315° |
| 2026-05-07 00:11 | 19.04459 | -78.54059 | 36029 ft | 450 kts | 315° |
| 2026-05-07 00:11 | 19.08721 | -78.58916 | 36026 ft | 450 kts | 315° |
| 2026-05-07 00:12 | 19.12975 | -78.63765 | 36025 ft | 448 kts | 315° |
| 2026-05-07 00:12 | 19.17219 | -78.68609 | 36022 ft | 448 kts | 315° |
| 2026-05-07 00:13 | 19.21463 | -78.73454 | 36025 ft | 449 kts | 315° |
| 2026-05-07 00:13 | 19.25707 | -78.78306 | 36027 ft | 449 kts | 315° |
| 2026-05-07 00:14 | 19.29949 | -78.83158 | 36031 ft | 449 kts | 315° |
| 2026-05-07 00:14 | 19.34166 | -78.87986 | 36037 ft | 449 kts | 315° |
| 2026-05-07 00:15 | 19.38407 | -78.92844 | 36031 ft | 449 kts | 315° |
| 2026-05-07 00:15 | 19.42649 | -78.97709 | 36027 ft | 449 kts | 315° |
| 2026-05-07 00:16 | 19.46882 | -79.02570 | 36039 ft | 449 kts | 315° |
| 2026-05-07 00:16 | 19.51110 | -79.07425 | 36027 ft | 448 kts | 314° |
| 2026-05-07 00:17 | 19.55337 | -79.12285 | 36026 ft | 448 kts | 314° |
| 2026-05-07 00:17 | 19.59537 | -79.17118 | 36038 ft | 448 kts | 314° |
| 2026-05-07 00:18 | 19.63761 | -79.21982 | 36029 ft | 448 kts | 314° |
| 2026-05-07 00:18 | 19.67988 | -79.26853 | 36030 ft | 448 kts | 314° |
| 2026-05-07 00:19 | 19.72212 | -79.31724 | 36035 ft | 448 kts | 314° |
| 2026-05-07 00:19 | 19.76431 | -79.36594 | 36027 ft | 448 kts | 314° |
| 2026-05-07 00:20 | 19.80656 | -79.41474 | 36038 ft | 448 kts | 314° |
| 2026-05-07 00:20 | 19.84850 | -79.46317 | 36028 ft | 447 kts | 314° |
| 2026-05-07 00:21 | 19.89059 | -79.51190 | 36022 ft | 447 kts | 314° |
| 2026-05-07 00:21 | 19.93268 | -79.56065 | 36028 ft | 447 kts | 314° |
| 2026-05-07 00:22 | 19.97477 | -79.60943 | 36038 ft | 447 kts | 314° |
| 2026-05-07 00:22 | 20.01682 | -79.65819 | 36036 ft | 447 kts | 314° |
| 2026-05-07 00:23 | 20.05892 | -79.70697 | 36031 ft | 447 kts | 314° |
| 2026-05-07 00:23 | 20.10105 | -79.75580 | 36027 ft | 447 kts | 314° |
| 2026-05-07 00:24 | 20.14314 | -79.80462 | 36025 ft | 447 kts | 314° |
| 2026-05-07 00:24 | 20.18498 | -79.85317 | 36040 ft | 448 kts | 314° |
| 2026-05-07 00:25 | 20.22702 | -79.90203 | 36039 ft | 447 kts | 314° |
| 2026-05-07 00:25 | 20.26903 | -79.95089 | 36024 ft | 447 kts | 314° |
| 2026-05-07 00:26 | 20.31099 | -79.99973 | 36022 ft | 447 kts | 314° |
| 2026-05-07 00:26 | 20.35294 | -80.04860 | 36037 ft | 447 kts | 314° |
| 2026-05-07 00:27 | 20.39488 | -80.09750 | 36039 ft | 447 kts | 314° |
| 2026-05-07 00:27 | 20.43688 | -80.14649 | 36039 ft | 447 kts | 314° |
| 2026-05-07 00:28 | 20.47859 | -80.19517 | 36034 ft | 447 kts | 313° |
| 2026-05-07 00:28 | 20.52059 | -80.24430 | 36034 ft | 448 kts | 313° |
| 2026-05-07 00:29 | 20.56238 | -80.29364 | 36035 ft | 447 kts | 313° |
| 2026-05-07 00:30 | 20.62400 | -80.36661 | 35425 ft | 437 kts | 313° |
| 2026-05-07 00:30 | 20.64437 | -80.39072 | 35187 ft | 437 kts | 313° |
| 2026-05-07 00:30 | 20.66477 | -80.41488 | 34954 ft | 438 kts | 313° |
| 2026-05-07 00:30 | 20.68519 | -80.43906 | 34721 ft | 439 kts | 313° |
| 2026-05-07 00:31 | 20.70571 | -80.46337 | 34493 ft | 440 kts | 313° |
| 2026-05-07 00:31 | 20.72624 | -80.48771 | 34265 ft | 441 kts | 313° |
| 2026-05-07 00:31 | 20.74680 | -80.51210 | 34032 ft | 442 kts | 313° |
| 2026-05-07 00:31 | 20.76741 | -80.53655 | 33777 ft | 443 kts | 313° |
| 2026-05-07 00:32 | 20.78808 | -80.56106 | 33514 ft | 445 kts | 313° |
| 2026-05-07 00:32 | 20.80885 | -80.58571 | 33251 ft | 446 kts | 313° |
| 2026-05-07 00:32 | 20.82937 | -80.61010 | 32993 ft | 447 kts | 313° |
| 2026-05-07 00:32 | 20.85023 | -80.63489 | 32763 ft | 449 kts | 313° |
| 2026-05-07 00:33 | 20.87114 | -80.65976 | 32504 ft | 450 kts | 313° |
| 2026-05-07 00:33 | 20.89212 | -80.68470 | 32262 ft | 451 kts | 313° |
| 2026-05-07 00:33 | 20.91309 | -80.70965 | 32016 ft | 451 kts | 313° |
| 2026-05-07 00:33 | 20.93410 | -80.73467 | 31779 ft | 452 kts | 313° |
| 2026-05-07 00:34 | 20.95514 | -80.75973 | 31531 ft | 453 kts | 313° |
| 2026-05-07 00:34 | 20.97626 | -80.78491 | 31289 ft | 454 kts | 313° |
| 2026-05-07 00:34 | 20.99743 | -80.81013 | 31058 ft | 455 kts | 313° |
| 2026-05-07 00:34 | 21.01864 | -80.83543 | 30818 ft | 457 kts | 313° |
| 2026-05-07 00:35 | 21.03990 | -80.86079 | 30585 ft | 458 kts | 313° |
| 2026-05-07 00:35 | 21.06119 | -80.88622 | 30359 ft | 459 kts | 313° |
| 2026-05-07 00:35 | 21.08262 | -80.91172 | 30132 ft | 460 kts | 313° |
| 2026-05-07 00:35 | 21.10389 | -80.93689 | 29865 ft | 462 kts | 313° |
| 2026-05-07 00:36 | 21.12551 | -80.96248 | 29591 ft | 464 kts | 313° |
| 2026-05-07 00:36 | 21.14721 | -80.98817 | 29335 ft | 465 kts | 313° |
| 2026-05-07 00:36 | 21.16894 | -81.01392 | 29066 ft | 466 kts | 313° |
| 2026-05-07 00:36 | 21.19074 | -81.03976 | 28807 ft | 468 kts | 313° |
| 2026-05-07 00:37 | 21.21261 | -81.06569 | 28549 ft | 469 kts | 313° |
| 2026-05-07 00:37 | 21.23449 | -81.09165 | 28294 ft | 470 kts | 313° |
| 2026-05-07 00:37 | 21.25646 | -81.11772 | 28045 ft | 471 kts | 314° |
| 2026-05-07 00:37 | 21.27845 | -81.14383 | 27788 ft | 472 kts | 314° |
| 2026-05-07 00:38 | 21.30052 | -81.17005 | 27540 ft | 473 kts | 314° |
| 2026-05-07 00:38 | 21.32262 | -81.19632 | 27297 ft | 475 kts | 314° |
| 2026-05-07 00:38 | 21.34477 | -81.22266 | 27044 ft | 476 kts | 314° |
| 2026-05-07 00:38 | 21.36696 | -81.24906 | 26793 ft | 477 kts | 314° |
| 2026-05-07 00:39 | 21.38923 | -81.27557 | 26579 ft | 478 kts | 314° |
| 2026-05-07 00:39 | 21.41154 | -81.30211 | 26332 ft | 477 kts | 314° |
| 2026-05-07 00:39 | 21.43375 | -81.32856 | 26091 ft | 476 kts | 314° |
| 2026-05-07 00:39 | 21.45563 | -81.35466 | 25856 ft | 475 kts | 314° |
| 2026-05-07 00:40 | 21.47774 | -81.38103 | 25630 ft | 474 kts | 314° |
| 2026-05-07 00:40 | 21.49982 | -81.40737 | 25392 ft | 474 kts | 314° |
| 2026-05-07 00:40 | 21.52183 | -81.43364 | 25160 ft | 473 kts | 314° |
| 2026-05-07 00:40 | 21.54382 | -81.45991 | 24935 ft | 472 kts | 314° |
| 2026-05-07 00:41 | 21.56571 | -81.48616 | 24704 ft | 471 kts | 313° |
| 2026-05-07 00:41 | 21.58659 | -81.51335 | 24473 ft | 471 kts | 310° |
| 2026-05-07 00:41 | 21.59958 | -81.53201 | 24335 ft | 470 kts | 308° |
| 2026-05-07 00:41 | 21.61788 | -81.56117 | 24113 ft | 470 kts | 304° |
| 2026-05-07 00:42 | 21.63457 | -81.59142 | 23895 ft | 470 kts | 301° |
| 2026-05-07 00:42 | 21.65036 | -81.62226 | 23676 ft | 470 kts | 301° |
| 2026-05-07 00:42 | 21.66597 | -81.65316 | 23433 ft | 469 kts | 301° |
| 2026-05-07 00:42 | 21.68153 | -81.68398 | 23167 ft | 468 kts | 300° |
| 2026-05-07 00:43 | 21.69704 | -81.71475 | 22903 ft | 466 kts | 301° |
| 2026-05-07 00:43 | 21.71249 | -81.74540 | 22653 ft | 465 kts | 301° |
| 2026-05-07 00:43 | 21.72788 | -81.77591 | 22410 ft | 463 kts | 301° |
| 2026-05-07 00:43 | 21.74318 | -81.80626 | 22155 ft | 461 kts | 301° |
| 2026-05-07 00:44 | 21.75848 | -81.83659 | 21901 ft | 459 kts | 301° |
| 2026-05-07 00:44 | 21.77369 | -81.86675 | 21659 ft | 457 kts | 301° |
| 2026-05-07 00:44 | 21.78861 | -81.89636 | 21413 ft | 455 kts | 301° |
| 2026-05-07 00:44 | 21.80367 | -81.92624 | 21165 ft | 453 kts | 301° |
| 2026-05-07 00:45 | 21.81867 | -81.95603 | 20926 ft | 451 kts | 301° |
| 2026-05-07 00:45 | 21.83361 | -81.98571 | 20688 ft | 449 kts | 301° |
| 2026-05-07 00:45 | 21.84849 | -82.01529 | 20442 ft | 448 kts | 301° |
| 2026-05-07 00:45 | 21.86332 | -82.04479 | 20208 ft | 446 kts | 301° |
| 2026-05-07 00:46 | 21.87807 | -82.07414 | 19981 ft | 444 kts | 301° |
| 2026-05-07 00:46 | 21.89276 | -82.10340 | 19756 ft | 443 kts | 301° |
| 2026-05-07 00:46 | 21.90736 | -82.13249 | 19521 ft | 441 kts | 301° |
| 2026-05-07 00:46 | 21.92195 | -82.16157 | 19292 ft | 439 kts | 301° |
| 2026-05-07 00:47 | 21.93647 | -82.19053 | 19069 ft | 438 kts | 301° |
| 2026-05-07 00:47 | 21.95091 | -82.21934 | 18837 ft | 436 kts | 301° |
| 2026-05-07 00:47 | 21.96531 | -82.24806 | 18618 ft | 433 kts | 301° |
| 2026-05-07 00:47 | 21.97959 | -82.27660 | 18397 ft | 432 kts | 301° |
| 2026-05-07 00:48 | 21.99382 | -82.30505 | 18155 ft | 430 kts | 301° |
| 2026-05-07 00:48 | 22.00799 | -82.33338 | 17899 ft | 429 kts | 301° |
| 2026-05-07 00:48 | 22.02194 | -82.36129 | 17648 ft | 428 kts | 301° |
| 2026-05-07 00:48 | 22.03603 | -82.38949 | 17398 ft | 426 kts | 301° |
| 2026-05-07 00:49 | 22.05008 | -82.41764 | 17142 ft | 425 kts | 301° |
| 2026-05-07 00:49 | 22.06407 | -82.44566 | 16884 ft | 424 kts | 301° |
| 2026-05-07 00:49 | 22.07802 | -82.47363 | 16647 ft | 422 kts | 301° |
| 2026-05-07 00:49 | 22.09192 | -82.50153 | 16399 ft | 421 kts | 301° |
| 2026-05-07 00:50 | 22.10577 | -82.52935 | 16168 ft | 420 kts | 301° |
| 2026-05-07 00:50 | 22.11960 | -82.55712 | 15920 ft | 419 kts | 301° |
| 2026-05-07 00:50 | 22.13340 | -82.58484 | 15692 ft | 418 kts | 301° |
| 2026-05-07 00:50 | 22.14713 | -82.61246 | 15451 ft | 417 kts | 301° |
| 2026-05-07 00:51 | 22.16082 | -82.63999 | 15209 ft | 416 kts | 301° |
| 2026-05-07 00:51 | 22.17449 | -82.66751 | 14978 ft | 415 kts | 301° |
| 2026-05-07 00:51 | 22.18811 | -82.69493 | 14748 ft | 414 kts | 301° |
| 2026-05-07 00:51 | 22.20166 | -82.72223 | 14512 ft | 413 kts | 301° |
| 2026-05-07 00:52 | 22.21521 | -82.74954 | 14280 ft | 412 kts | 301° |
| 2026-05-07 00:52 | 22.22874 | -82.77682 | 14062 ft | 411 kts | 301° |
| 2026-05-07 00:52 | 22.24222 | -82.80404 | 13826 ft | 411 kts | 301° |
| 2026-05-07 00:52 | 22.25554 | -82.83090 | 13584 ft | 410 kts | 301° |
| 2026-05-07 00:53 | 22.27169 | -82.85587 | 13284 ft | 403 kts | 316° |
| 2026-05-07 00:53 | 22.29352 | -82.87434 | 13060 ft | 396 kts | 333° |
| 2026-05-07 00:53 | 22.31861 | -82.88612 | 12814 ft | 392 kts | 342° |
| 2026-05-07 00:53 | 22.34418 | -82.89628 | 12559 ft | 391 kts | 343° |
| 2026-05-07 00:54 | 22.36970 | -82.90631 | 12316 ft | 390 kts | 342° |
| 2026-05-07 00:54 | 22.39512 | -82.91637 | 12068 ft | 388 kts | 342° |
| 2026-05-07 00:54 | 22.42042 | -82.92649 | 11814 ft | 387 kts | 342° |
| 2026-05-07 00:54 | 22.44562 | -82.93664 | 11489 ft | 386 kts | 342° |
| 2026-05-07 00:55 | 22.47068 | -82.94677 | 11104 ft | 383 kts | 342° |
| 2026-05-07 00:55 | 22.49546 | -82.95680 | 10795 ft | 375 kts | 341° |
| 2026-05-07 00:55 | 22.51945 | -82.96654 | 10671 ft | 361 kts | 342° |
| 2026-05-07 00:55 | 22.54248 | -82.97590 | 10541 ft | 347 kts | 342° |
| 2026-05-07 00:56 | 22.56467 | -82.98491 | 10416 ft | 335 kts | 341° |
| 2026-05-07 00:56 | 22.58609 | -82.99361 | 10284 ft | 323 kts | 342° |
| 2026-05-07 00:56 | 22.60671 | -83.00197 | 10182 ft | 311 kts | 342° |
| 2026-05-07 00:56 | 22.62665 | -83.01004 | 10015 ft | 302 kts | 342° |
| 2026-05-07 00:57 | 22.64608 | -83.01792 | 9776 ft | 296 kts | 342° |
| 2026-05-07 00:57 | 22.66529 | -83.02569 | 9417 ft | 294 kts | 341° |
| 2026-05-07 00:57 | 22.68415 | -83.03334 | 9052 ft | 293 kts | 341° |
| 2026-05-07 00:57 | 22.70320 | -83.04105 | 8684 ft | 292 kts | 342° |
| 2026-05-07 00:58 | 22.72295 | -83.04434 | 8230 ft | 288 kts | 10° |
| 2026-05-07 00:58 | 22.74117 | -83.03638 | 7847 ft | 282 kts | 39° |
| 2026-05-07 00:58 | 22.75348 | -83.02028 | 7465 ft | 278 kts | 67° |
| 2026-05-07 00:58 | 22.75954 | -83.00052 | 7143 ft | 275 kts | 75° |
| 2026-05-07 00:59 | 22.76858 | -82.96725 | 6580 ft | 274 kts | 75° |
| 2026-05-07 00:59 | 22.77392 | -82.94791 | 6239 ft | 273 kts | 75° |
| 2026-05-07 00:59 | 22.77939 | -82.92820 | 5885 ft | 272 kts | 75° |
| 2026-05-07 01:00 | 22.78483 | -82.90859 | 5555 ft | 271 kts | 75° |
| 2026-05-07 01:00 | 22.79026 | -82.88911 | 5219 ft | 269 kts | 75° |
| 2026-05-07 01:00 | 22.79566 | -82.86970 | 4908 ft | 268 kts | 74° |
| 2026-05-07 01:00 | 22.80105 | -82.85039 | 4609 ft | 266 kts | 74° |
| 2026-05-07 01:01 | 22.80641 | -82.83122 | 4282 ft | 265 kts | 74° |
| 2026-05-07 01:01 | 22.81175 | -82.81209 | 4004 ft | 263 kts | 74° |
| 2026-05-07 01:01 | 22.81707 | -82.79301 | 3975 ft | 265 kts | 74° |
| 2026-05-07 01:01 | 22.82240 | -82.77381 | 3963 ft | 266 kts | 73° |
| 2026-05-07 01:02 | 22.82773 | -82.75463 | 3965 ft | 265 kts | 73° |
| 2026-05-07 01:02 | 22.83308 | -82.73549 | 3966 ft | 265 kts | 73° |
| 2026-05-07 01:02 | 22.83840 | -82.71637 | 3970 ft | 265 kts | 73° |
| 2026-05-07 01:02 | 22.84369 | -82.69740 | 3964 ft | 256 kts | 74° |
| 2026-05-07 01:03 | 22.84869 | -82.67944 | 3949 ft | 241 kts | 74° |
| 2026-05-07 01:03 | 22.85338 | -82.66251 | 3955 ft | 226 kts | 74° |
| 2026-05-07 01:03 | 22.85772 | -82.64687 | 3996 ft | 207 kts | 74° |
| 2026-05-07 01:03 | 22.86172 | -82.63250 | 3965 ft | 190 kts | 74° |
| 2026-05-07 01:04 | 22.86530 | -82.61960 | 3919 ft | 168 kts | 74° |
| 2026-05-07 01:04 | 22.86855 | -82.60777 | 3940 ft | 164 kts | 75° |
| 2026-05-07 01:04 | 22.87175 | -82.59590 | 3955 ft | 164 kts | 73° |
| 2026-05-07 01:04 | 22.87593 | -82.58440 | 3962 ft | 164 kts | 65° |
| 2026-05-07 01:05 | 22.88125 | -82.57376 | 3818 ft | 157 kts | 59° |
| 2026-05-07 01:05 | 22.88728 | -82.56373 | 3392 ft | 160 kts | 57° |
| 2026-05-07 01:05 | 22.89374 | -82.55373 | 2965 ft | 161 kts | 56° |
| 2026-05-07 01:05 | 22.90019 | -82.54391 | 2738 ft | 160 kts | 56° |
| 2026-05-07 01:06 | 22.90666 | -82.53408 | 2531 ft | 160 kts | 55° |
| 2026-05-07 01:06 | 22.91314 | -82.52427 | 2309 ft | 160 kts | 56° |
| 2026-05-07 01:06 | 22.91956 | -82.51447 | 2053 ft | 159 kts | 56° |
| 2026-05-07 01:06 | 22.92596 | -82.50473 | 1844 ft | 158 kts | 57° |
| 2026-05-07 01:07 | 22.93228 | -82.49502 | 1710 ft | 157 kts | 57° |
| 2026-05-07 01:07 | 22.93878 | -82.48542 | 1687 ft | 158 kts | 56° |
| 2026-05-07 01:07 | 22.94538 | -82.47584 | 1503 ft | 158 kts | 55° |
| 2026-05-07 01:07 | 22.95154 | -82.46598 | 1224 ft | 157 kts | 56° |
| 2026-05-07 01:08 | 22.95770 | -82.45643 | 952 ft | 156 kts | 54° |
| 2026-05-07 01:08 | 22.96417 | -82.44699 | 825 ft | 156 kts | 55° |
| 2026-05-07 01:08 | 22.97040 | -82.43733 | 635 ft | 156 kts | 55° |
| 2026-05-07 01:08 | 22.97670 | -82.42783 | 364 ft | 152 kts | 55° |
| 2026-05-07 01:09 | 22.98253 | -82.41893 | 228 ft | 124 kts | 53° |
| 2026-05-07 01:09 | 22.98607 | -82.41375 | 229 ft | 48 kts | 53° |
| 2026-05-07 01:09 | 22.98710 | -82.41222 | 228 ft | 20 kts | 53° |
| 2026-05-07 01:09 | 22.98806 | -82.41106 | 229 ft | 22 kts | 32° |
| 2026-05-07 01:10 | 22.98960 | -82.41072 | 230 ft | 24 kts | 8° |
| 2026-05-07 01:10 | 22.99075 | -82.40988 | 231 ft | 20 kts | 53° |
| 2026-05-07 01:10 | 22.99163 | -82.40859 | 228 ft | 23 kts | 53° |
| 2026-05-07 01:10 | 22.99248 | -82.40731 | 229 ft | 21 kts | 56° |
| 2026-05-07 01:11 | 22.99334 | -82.40597 | 228 ft | 23 kts | 55° |
| 2026-05-07 01:11 | 22.99436 | -82.40444 | 232 ft | 25 kts | 46° |
| 2026-05-07 01:11 | 22.99567 | -82.40466 | 228 ft | 20 kts | 323° |
| 2026-05-07 01:11 | 22.99562 | -82.40557 | 227 ft | 15 kts | 237° |
| 2026-05-07 01:12 | 22.99549 | -82.40633 | 231 ft | 6 kts | 315° |
| 2026-05-07 01:12 | 22.99584 | -82.40656 | 230 ft | 0 kts | 336° |
| 2026-05-07 01:12 | 22.99588 | -82.40657 | 230 ft | 1 kts | 346° |
| 2026-05-07 01:12 | 22.99591 | -82.40658 | 229 ft | 0 kts | 348° |